createdAt,value
2019-05-28T00:00:55.149Z,6.60
2019-05-28T00:03:24.135Z,7.00
2019-05-28T00:05:54.710Z,5.23
2019-05-28T00:08:42.889Z,6.00
2019-05-28T00:11:12.069Z,5.27
2019-05-28T00:13:40.975Z,6.57
2019-05-28T00:16:33.607Z,5.87
2019-05-28T00:19:02.240Z,5.40
2019-05-28T00:21:30.725Z,6.40
2019-05-28T00:23:59.168Z,5.30
2019-05-28T00:26:27.699Z,6.00
2019-05-28T00:28:56.554Z,6.03
2019-05-28T00:31:25.943Z,6.77
2019-05-28T00:33:55.148Z,6.80
2019-05-28T00:36:25.848Z,6.97
2019-05-28T00:38:55.968Z,6.10
2019-05-28T00:41:25.867Z,6.57
2019-05-28T00:43:54.818Z,8.17
2019-05-28T00:46:25.425Z,6.20
2019-05-28T00:48:54.780Z,7.50
2019-05-28T00:51:24.355Z,8.40
2019-05-28T00:53:53.439Z,7.80
2019-05-28T00:56:24.674Z,9.07
2019-05-28T00:58:54.566Z,8.40
2019-05-28T01:01:23.676Z,5.20
2019-05-28T01:04:11.499Z,5.80
2019-05-28T01:06:40.092Z,6.37
2019-05-28T01:09:11.895Z,5.03
2019-05-28T01:11:42.183Z,6.97
2019-05-28T01:14:11.132Z,5.63
2019-05-28T01:17:02.086Z,5.63
2019-05-28T01:19:30.575Z,6.70
2019-05-28T01:22:19.915Z,4.87
2019-05-28T01:24:53.013Z,5.87
2019-05-28T01:27:22.822Z,7.93
2019-05-28T01:29:53.856Z,7.17
2019-05-28T01:32:24.656Z,6.37
2019-05-28T01:34:54.044Z,7.37
2019-05-28T01:37:23.599Z,6.27
2019-05-28T01:40:13.939Z,5.73
2019-05-28T01:42:42.460Z,6.07
2019-05-28T01:45:11.842Z,5.90
2019-05-28T01:47:41.427Z,5.60
2019-05-28T01:50:11.905Z,8.17
2019-05-28T01:52:41.321Z,5.93
2019-05-28T01:55:12.455Z,6.07
2019-05-28T01:57:41.734Z,8.43
2019-05-28T02:00:43.164Z,7.63
2019-05-28T02:03:12.327Z,5.43
2019-05-28T02:05:42.122Z,6.50
2019-05-28T02:08:11.653Z,6.80
2019-05-28T02:10:41.011Z,5.87
2019-05-28T02:13:12.132Z,7.23
2019-05-28T02:15:41.835Z,6.07
2019-05-28T02:18:11.061Z,8.03
2019-05-28T02:20:40.039Z,9.20
2019-05-28T02:23:30.346Z,7.47
2019-05-28T02:25:58.854Z,7.23
2019-05-28T02:28:27.306Z,7.23
2019-05-28T02:30:57.114Z,8.10
2019-05-28T02:33:25.703Z,9.17
2019-05-28T02:35:55.191Z,8.27
2019-05-28T02:38:26.063Z,8.53
2019-05-28T02:40:55.192Z,8.00
2019-05-28T02:43:24.871Z,6.37
2019-05-28T02:45:53.549Z,8.47
2019-05-28T02:48:44.438Z,6.73
2019-05-28T02:51:13.968Z,7.97
2019-05-28T02:53:42.455Z,7.67
2019-05-28T02:56:43.566Z,9.20
2019-05-28T02:59:33.136Z,8.33
2019-05-28T03:02:03.326Z,7.20
2019-05-28T03:04:40.896Z,6.67
2019-05-28T03:07:11.220Z,8.70
2019-05-28T03:09:42.623Z,7.60
2019-05-28T03:12:11.719Z,7.27
2019-05-28T03:14:41.239Z,7.23
2019-05-28T03:17:11.457Z,7.77
2019-05-28T03:19:42.218Z,8.07
2019-05-28T03:22:13.330Z,8.30
2019-05-28T03:24:45.120Z,5.60
2019-05-28T03:27:13.846Z,7.93
2019-05-28T03:29:42.947Z,7.20
2019-05-28T03:32:12.614Z,6.67
2019-05-28T03:34:42.392Z,7.30
2019-05-28T03:37:11.667Z,7.13
2019-05-28T03:39:43.374Z,8.40
2019-05-28T03:42:12.310Z,5.57
2019-05-28T03:44:41.763Z,6.67
2019-05-28T03:50:10.890Z,7.43
2019-05-28T03:52:39.781Z,4.73
2019-05-28T03:55:08.723Z,8.20
2019-05-28T03:57:37.464Z,4.83
2019-05-28T04:00:06.406Z,7.63
2019-05-28T04:02:34.847Z,7.40
2019-05-28T04:05:03.447Z,6.13
2019-05-28T04:07:31.970Z,5.87
2019-05-28T04:10:03.372Z,7.03
2019-05-28T04:12:31.789Z,5.43
2019-05-28T04:15:29.921Z,6.23
2019-05-28T04:17:58.429Z,5.70
2019-05-28T04:20:27.125Z,8.17
2019-05-28T04:22:55.800Z,6.20
2019-05-28T04:25:24.854Z,6.87
2019-05-28T04:27:53.909Z,4.97
2019-05-28T04:30:23.706Z,6.07
2019-05-28T04:32:52.778Z,6.93
2019-05-28T04:35:24.277Z,5.77
2019-05-28T04:37:54.057Z,13.00
2019-05-28T04:40:23.279Z,11.63
2019-05-28T04:43:12.656Z,7.67
2019-05-28T04:45:42.092Z,10.57
2019-05-28T04:48:11.165Z,23.50
2019-05-28T04:50:40.259Z,25.07
2019-05-28T04:53:10.147Z,10.53
2019-05-28T04:55:39.536Z,5.87
2019-05-28T04:58:09.596Z,6.47
2019-05-28T05:00:38.713Z,6.00
2019-05-28T05:03:07.432Z,5.53
2019-05-28T05:05:35.963Z,7.10
2019-05-28T05:08:04.435Z,3.70
2019-05-28T05:10:52.402Z,5.43
2019-05-28T05:13:21.130Z,5.87
2019-05-28T05:15:49.663Z,7.03
2019-05-28T05:18:18.159Z,4.90
2019-05-28T05:20:46.652Z,6.50
2019-05-28T05:23:15.201Z,6.63
2019-05-28T05:26:03.050Z,4.37
2019-05-28T05:28:31.473Z,4.80
2019-05-28T05:31:10.117Z,4.90
2019-05-28T05:33:38.626Z,7.20
2019-05-28T05:36:07.097Z,6.93
2019-05-28T05:38:35.539Z,7.40
2019-05-28T05:41:08.599Z,6.03
2019-05-28T05:43:42.935Z,7.40
2019-05-28T05:46:11.387Z,7.77
2019-05-28T05:48:39.842Z,7.47
2019-05-28T05:51:08.269Z,5.97
2019-05-28T05:53:36.761Z,4.70
2019-05-28T05:56:25.210Z,6.30
2019-05-28T05:58:54.930Z,4.57
2019-05-28T06:05:09.591Z,8.00
2019-05-28T06:07:38.151Z,6.03
2019-05-28T06:10:07.625Z,4.03
2019-05-28T06:12:36.103Z,5.43
2019-05-28T06:15:05.954Z,7.63
2019-05-28T06:17:34.403Z,6.07
2019-05-28T06:20:03.916Z,4.37
2019-05-28T06:22:32.386Z,5.10
2019-05-28T06:25:00.849Z,6.50
2019-05-28T06:27:29.361Z,8.27
2019-05-28T06:29:59.099Z,7.33
2019-05-28T06:32:32.062Z,3.43
2019-05-28T06:35:18.275Z,5.93
2019-05-28T06:37:46.770Z,4.10
2019-05-28T06:40:15.867Z,9.60
2019-05-28T06:42:44.506Z,3.90
2019-05-28T06:45:13.338Z,5.63
2019-05-28T06:47:45.237Z,6.23
2019-05-28T06:50:12.789Z,5.17
2019-05-28T06:52:41.461Z,6.47
2019-05-28T06:55:10.381Z,5.70
2019-05-28T06:57:38.815Z,7.27
2019-05-28T07:00:08.227Z,7.83
2019-05-28T07:02:36.672Z,8.53
2019-05-28T07:05:07.034Z,8.50
2019-05-28T07:07:35.517Z,7.27
2019-05-28T07:10:05.953Z,7.03
2019-05-28T07:12:35.071Z,8.27
2019-05-28T07:15:58.276Z,8.57
2019-05-28T07:18:26.711Z,4.97
2019-05-28T07:20:59.708Z,8.10
2019-05-28T07:23:28.286Z,6.40
2019-05-28T07:25:57.235Z,8.20
2019-05-28T07:28:25.668Z,5.27
2019-05-28T07:30:54.177Z,8.13
2019-05-28T07:33:22.615Z,7.03
2019-05-28T07:35:51.045Z,7.63
2019-05-28T07:38:19.646Z,7.17
2019-05-28T07:40:48.131Z,6.47
2019-05-28T07:43:16.635Z,4.83
2019-05-28T07:45:45.258Z,8.20
2019-05-28T07:48:13.818Z,6.30
2019-05-28T07:50:42.261Z,6.77
2019-05-28T07:53:10.723Z,5.40
2019-05-28T07:55:46.730Z,6.83
2019-05-28T07:58:15.419Z,6.77
2019-05-28T08:00:44.597Z,7.87
2019-05-28T08:03:13.192Z,8.20
2019-05-28T08:05:50.639Z,7.07
2019-05-28T08:08:20.980Z,7.10
2019-05-28T08:10:49.476Z,4.57
2019-05-28T08:13:19.370Z,7.57
2019-05-28T08:15:47.860Z,9.43
2019-05-28T08:18:16.380Z,5.97
2019-05-28T08:20:44.808Z,4.13
2019-05-28T08:23:13.312Z,10.30
2019-05-28T08:25:47.531Z,6.67
2019-05-28T08:28:20.005Z,7.30
2019-05-28T08:30:42.500Z,5.83
2019-05-28T08:33:30.300Z,4.57
2019-05-28T08:35:58.760Z,5.43
2019-05-28T08:38:27.217Z,5.30
2019-05-28T08:40:55.661Z,6.03
2019-05-28T08:43:24.127Z,4.53
2019-05-28T08:45:52.688Z,5.57
2019-05-28T08:48:21.150Z,7.07
2019-05-28T08:51:11.003Z,6.77
2019-05-28T08:53:39.985Z,7.50
2019-05-28T08:56:09.288Z,6.57
2019-05-28T08:58:38.087Z,7.33
2019-05-28T09:01:06.673Z,6.07
2019-05-28T09:03:55.374Z,6.33
2019-05-28T09:06:43.196Z,3.90
2019-05-28T09:09:12.507Z,6.87
2019-05-28T09:11:41.464Z,4.73
2019-05-28T09:14:10.430Z,6.23
2019-05-28T09:16:39.279Z,6.40
2019-05-28T09:19:10.377Z,6.20
2019-05-28T09:21:38.160Z,4.37
2019-05-28T09:24:06.980Z,6.33
2019-05-28T09:26:35.560Z,6.07
2019-05-28T09:29:23.895Z,6.23
2019-05-28T09:31:53.233Z,7.83
2019-05-28T09:34:23.868Z,7.00
2019-05-28T09:36:53.420Z,4.23
2019-05-28T09:39:23.372Z,3.43
2019-05-28T09:41:54.757Z,5.40
2019-05-28T09:44:42.708Z,5.83
2019-05-28T09:47:11.509Z,7.27
2019-05-28T09:49:40.627Z,4.47
2019-05-28T09:52:09.409Z,6.20
2019-05-28T09:54:38.482Z,6.17
2019-05-28T09:57:46.258Z,4.63
2019-05-28T10:00:07.204Z,5.33
2019-05-28T10:02:35.690Z,6.37
2019-05-28T10:05:05.052Z,6.13
2019-05-28T10:07:52.807Z,5.80
2019-05-28T10:10:21.468Z,3.33
2019-05-28T10:12:53.154Z,6.63
2019-05-28T10:15:24.389Z,4.87
2019-05-28T10:17:52.842Z,8.03
2019-05-28T10:20:40.621Z,5.13
2019-05-28T10:23:09.081Z,5.33
2019-05-28T10:25:37.571Z,4.53
2019-05-28T10:28:25.488Z,4.17
2019-05-28T10:30:54.022Z,4.90
2019-05-28T10:33:42.298Z,4.90
2019-05-28T10:36:11.590Z,4.17
2019-05-28T10:38:40.488Z,4.43
2019-05-28T10:41:10.032Z,5.83
2019-05-28T10:43:38.765Z,5.17
2019-05-28T10:46:07.987Z,5.93
2019-05-28T10:48:36.895Z,3.90
2019-05-28T10:51:05.566Z,5.53
2019-05-28T10:53:34.060Z,4.30
2019-05-28T10:56:02.517Z,3.83
2019-05-28T10:58:31.023Z,3.23
2019-05-28T11:00:59.488Z,4.53
2019-05-28T11:03:27.930Z,3.23
2019-05-28T11:05:56.693Z,2.27
2019-05-28T11:08:26.346Z,4.87
2019-05-28T11:10:57.767Z,5.87
2019-05-28T11:13:26.312Z,5.57
2019-05-28T11:16:14.159Z,3.40
2019-05-28T11:18:42.616Z,6.20
2019-05-28T11:21:11.080Z,6.07
2019-05-28T11:23:39.514Z,6.53
2019-05-28T11:26:07.972Z,3.63
2019-05-28T11:28:36.419Z,4.40
2019-05-28T11:31:05.610Z,2.80
2019-05-28T11:33:34.107Z,3.30
2019-05-28T11:36:02.526Z,3.57
2019-05-28T11:38:31.083Z,3.00
2019-05-28T11:41:01.333Z,4.97
2019-05-28T11:43:29.782Z,4.20
2019-05-28T11:45:58.529Z,5.17
2019-05-28T11:48:36.003Z,4.80
2019-05-28T11:51:23.886Z,6.20
2019-05-28T11:53:52.381Z,6.67
2019-05-28T11:56:24.877Z,9.67
2019-05-28T11:58:53.321Z,7.40
2019-05-28T12:01:33.890Z,10.80
2019-05-28T12:03:51.933Z,5.43
2019-05-28T12:06:20.395Z,7.30
2019-05-28T12:09:08.614Z,2.70
2019-05-28T12:11:37.286Z,4.43
2019-05-28T12:14:05.790Z,2.53
2019-05-28T12:16:34.221Z,3.40
2019-05-28T12:19:02.653Z,4.60
2019-05-28T12:24:21.940Z,1.63
2019-05-28T12:26:52.982Z,2.40
2019-05-28T12:29:33.430Z,5.07
2019-05-28T12:32:23.528Z,1.90
2019-05-28T12:34:54.032Z,3.83
2019-05-28T12:37:23.935Z,2.90
2019-05-28T12:40:12.158Z,2.93
2019-05-28T12:42:40.807Z,3.77
2019-05-28T12:45:36.029Z,3.20
2019-05-28T12:48:23.742Z,4.37
2019-05-28T12:50:53.086Z,2.17
2019-05-28T12:53:22.762Z,2.80
2019-05-28T12:55:52.034Z,4.63
2019-05-28T12:58:41.784Z,2.43
2019-05-28T13:00:57.350Z,3.40
2019-05-28T13:03:29.425Z,1.40
2019-05-28T13:05:58.144Z,2.83
2019-05-28T13:08:26.864Z,3.13
2019-05-28T13:11:14.635Z,2.77
2019-05-28T13:13:43.077Z,3.03
2019-05-28T13:16:11.583Z,3.87
2019-05-28T13:18:40.093Z,1.27
2019-05-28T13:21:08.521Z,3.03
2019-05-28T13:23:37.314Z,3.07
2019-05-28T13:26:05.816Z,3.40
2019-05-28T13:28:34.270Z,3.40
2019-05-28T13:31:02.727Z,2.97
2019-05-28T13:33:31.172Z,3.00
2019-05-28T13:35:59.616Z,3.37
2019-05-28T13:38:28.080Z,4.90
2019-05-28T13:40:56.559Z,4.40
2019-05-28T13:43:25.036Z,2.67
2019-05-28T13:45:53.507Z,4.33
2019-05-28T13:48:25.175Z,3.10
2019-05-28T13:50:53.638Z,2.40
2019-05-28T13:53:22.123Z,2.23
2019-05-28T13:55:50.569Z,2.03
2019-05-28T13:58:19.005Z,3.13
2019-05-28T14:00:47.442Z,3.07
2019-05-28T14:03:15.859Z,2.90
2019-05-28T14:05:44.296Z,3.67
2019-05-28T14:08:12.741Z,4.77
2019-05-28T14:10:41.294Z,3.10
2019-05-28T14:13:09.769Z,2.40
2019-05-28T14:15:38.270Z,3.00
2019-05-28T14:18:06.843Z,2.70
2019-05-28T14:20:35.425Z,2.87
2019-05-28T14:23:04.257Z,3.60
2019-05-28T14:25:32.715Z,3.73
2019-05-28T14:28:01.143Z,3.17
2019-05-28T14:30:59.303Z,2.37
2019-05-28T14:33:19.447Z,3.37
2019-05-28T14:35:48.766Z,3.33
2019-05-28T14:38:17.486Z,3.87
2019-05-28T14:40:46.259Z,1.97
2019-05-28T14:43:15.638Z,1.97
2019-05-28T14:45:44.135Z,1.77
2019-05-28T14:48:12.585Z,1.20
2019-05-28T14:51:00.365Z,1.40
2019-05-28T14:53:28.788Z,1.90
2019-05-28T14:55:57.295Z,1.80
2019-05-28T14:58:26.175Z,3.17
2019-05-28T15:00:55.633Z,2.93
2019-05-28T15:03:43.402Z,2.13
2019-05-28T15:06:12.685Z,2.87
2019-05-28T15:08:43.179Z,3.57
2019-05-28T15:11:12.119Z,2.87
2019-05-28T15:13:41.169Z,1.63
2019-05-28T15:16:10.375Z,1.47
2019-05-28T15:18:39.389Z,2.60
2019-05-28T15:21:08.169Z,6.20
2019-05-28T15:23:56.170Z,1.20
2019-05-28T15:26:25.682Z,2.03
2019-05-28T15:28:55.063Z,2.37
2019-05-28T15:31:23.990Z,2.30
2019-05-28T15:33:54.784Z,1.30
2019-05-28T15:36:23.392Z,2.03
2019-05-28T15:38:53.952Z,4.53
2019-05-28T15:41:24.175Z,3.27
2019-05-28T15:43:53.079Z,1.07
2019-05-28T15:46:24.479Z,2.33
2019-05-28T15:51:49.246Z,3.27
2019-05-28T15:54:18.881Z,3.57
2019-05-28T15:56:47.413Z,2.70
2019-05-28T15:59:15.985Z,2.27
2019-05-28T16:01:44.413Z,4.00
2019-05-28T16:04:12.874Z,2.57
2019-05-28T16:06:41.298Z,1.97
2019-05-28T16:09:12.817Z,3.13
2019-05-28T16:11:40.022Z,2.50
2019-05-28T16:14:27.837Z,3.40
2019-05-28T16:16:56.281Z,3.70
2019-05-28T16:19:24.719Z,2.13
2019-05-28T16:21:53.177Z,3.47
2019-05-28T16:24:22.588Z,3.00
2019-05-28T16:26:51.165Z,3.43
2019-05-28T16:29:19.831Z,3.23
2019-05-28T16:31:48.292Z,2.63
2019-05-28T16:34:16.719Z,2.70
2019-05-28T16:36:45.275Z,2.70
2019-05-28T16:39:13.755Z,4.67
2019-05-28T16:41:42.216Z,1.93
2019-05-28T16:44:10.673Z,3.40
2019-05-28T16:47:15.245Z,4.10
2019-05-28T16:49:28.626Z,4.03
2019-05-28T16:51:57.055Z,2.63
2019-05-28T16:54:45.704Z,3.07
2019-05-28T16:57:14.660Z,3.60
2019-05-28T16:59:43.506Z,5.20
2019-05-28T17:02:12.801Z,1.60
2019-05-28T17:05:00.989Z,1.70
2019-05-28T17:07:29.489Z,2.60
2019-05-28T17:09:57.961Z,1.60
2019-05-28T17:12:26.629Z,1.67
2019-05-28T17:14:57.266Z,1.93
2019-05-28T17:17:25.871Z,1.83
2019-05-28T17:20:19.546Z,2.07
2019-05-28T17:22:49.858Z,3.07
2019-05-28T17:25:19.313Z,2.37
2019-05-28T17:27:49.302Z,3.17
2019-05-28T17:30:24.029Z,3.43
2019-05-28T17:32:52.819Z,4.33
2019-05-28T17:35:41.772Z,2.47
2019-05-28T17:38:11.443Z,1.00
2019-05-28T17:40:48.487Z,1.23
2019-05-28T17:43:10.993Z,1.90
2019-05-28T17:45:40.715Z,2.20
2019-05-28T17:48:12.111Z,1.70
2019-05-28T17:50:41.456Z,1.00
2019-05-28T17:53:10.773Z,1.53
2019-05-28T17:55:58.630Z,4.57
2019-05-28T17:58:30.871Z,1.90
2019-05-28T18:00:57.513Z,1.23
2019-05-28T18:03:26.697Z,1.00
2019-05-28T18:05:55.877Z,3.03
2019-05-28T18:08:25.003Z,1.47
2019-05-28T18:11:04.084Z,3.03
2019-05-28T18:13:28.472Z,1.23
2019-05-28T18:15:56.677Z,1.07
2019-05-28T18:18:26.131Z,1.17
2019-05-28T18:20:55.564Z,1.40
2019-05-28T18:23:24.867Z,1.27
2019-05-28T18:25:57.889Z,1.63
2019-05-28T18:28:26.564Z,2.07
2019-05-28T18:31:16.539Z,2.00
2019-05-28T18:33:47.099Z,1.30
2019-05-28T18:36:35.505Z,1.23
2019-05-28T18:39:05.473Z,1.70
2019-05-28T18:41:33.927Z,1.70
2019-05-28T18:44:02.391Z,1.50
2019-05-28T18:46:30.828Z,2.97
2019-05-28T18:49:27.677Z,2.90
2019-05-28T18:51:56.315Z,1.17
2019-05-28T18:54:29.369Z,1.10
2019-05-28T18:56:56.740Z,1.30
2019-05-28T18:59:45.410Z,4.43
2019-05-28T19:02:14.162Z,2.50
2019-05-28T19:04:43.188Z,3.27
2019-05-28T19:07:30.996Z,2.73
2019-05-28T19:09:59.504Z,2.30
2019-05-28T19:12:27.967Z,3.73
2019-05-28T19:14:56.390Z,3.97
2019-05-28T19:17:24.828Z,1.83
2019-05-28T19:19:53.248Z,2.60
2019-05-28T19:22:34.372Z,1.37
2019-05-28T19:25:02.867Z,2.60
2019-05-28T19:27:31.329Z,2.73
2019-05-28T19:29:59.831Z,2.63
2019-05-28T19:32:28.330Z,2.03
2019-05-28T19:34:56.997Z,2.27
2019-05-28T19:37:25.701Z,2.30
2019-05-28T19:39:54.272Z,2.50
2019-05-28T19:42:22.953Z,4.80
2019-05-28T19:44:53.337Z,2.80
2019-05-28T19:48:09.226Z,2.50
2019-05-28T19:50:28.996Z,3.43
2019-05-28T19:52:57.608Z,2.83
2019-05-28T19:55:26.039Z,3.07
2019-05-28T19:57:54.512Z,4.43
2019-05-28T20:00:23.105Z,4.23
2019-05-28T20:02:51.888Z,3.00
2019-05-28T20:05:20.637Z,3.77
2019-05-28T20:07:49.486Z,2.70
2019-05-28T20:10:19.554Z,5.83
2019-05-28T20:12:48.303Z,4.17
2019-05-28T20:15:20.979Z,3.60
2019-05-28T20:17:48.764Z,4.53
2019-05-28T20:20:19.294Z,4.30
2019-05-28T20:22:48.198Z,3.53
2019-05-28T20:25:17.436Z,3.13
2019-05-28T20:27:49.684Z,3.70
2019-05-28T20:30:19.114Z,2.87
2019-05-28T20:32:48.494Z,3.33
2019-05-28T20:35:17.575Z,3.77
2019-05-28T20:37:48.474Z,3.13
2019-05-28T20:40:17.427Z,2.90
2019-05-28T20:42:46.375Z,2.23
2019-05-28T20:45:16.284Z,2.87
2019-05-28T20:47:46.052Z,2.20
2019-05-28T20:50:15.252Z,3.00
2019-05-28T20:52:43.977Z,3.93
2019-05-28T20:55:31.741Z,2.57
2019-05-28T20:58:00.257Z,2.97
2019-05-28T21:00:28.687Z,2.67
2019-05-28T21:02:57.902Z,4.17
2019-05-28T21:05:26.443Z,3.20
2019-05-28T21:08:14.241Z,2.50
2019-05-28T21:10:43.278Z,3.10
2019-05-28T21:13:11.713Z,3.90
2019-05-28T21:15:40.293Z,2.67
2019-05-28T21:18:09.009Z,4.23
2019-05-28T21:20:37.798Z,3.13
2019-05-28T21:23:06.367Z,3.87
2019-05-28T21:25:34.898Z,2.20
2019-05-28T21:28:03.390Z,3.97
2019-05-28T21:30:31.804Z,2.93
2019-05-28T21:33:30.225Z,2.60
2019-05-28T21:35:59.461Z,2.97
2019-05-28T21:38:28.061Z,3.63
2019-05-28T21:40:57.452Z,4.13
2019-05-28T21:43:26.609Z,2.93
2019-05-28T21:45:56.556Z,2.73
2019-05-28T21:48:25.534Z,2.90
2019-05-28T21:50:54.607Z,4.63
2019-05-28T21:53:24.507Z,3.43
2019-05-28T21:56:12.499Z,4.33
2019-05-28T21:58:42.124Z,3.70
2019-05-28T22:01:21.052Z,5.63
2019-05-28T22:03:50.896Z,3.40
2019-05-28T22:06:20.771Z,7.00
2019-05-28T22:08:51.596Z,4.90
2019-05-28T22:11:22.323Z,8.87
2019-05-28T22:13:52.457Z,3.93
2019-05-28T22:16:27.465Z,3.37
2019-05-28T22:18:56.212Z,3.40
2019-05-28T22:21:26.976Z,5.17
2019-05-28T22:23:56.558Z,3.27
2019-05-28T22:51:51.537Z,4.40
2019-05-28T22:54:22.032Z,4.97
2019-05-28T22:56:52.939Z,5.60
2019-05-28T22:59:23.230Z,5.00
2019-05-28T23:01:54.871Z,5.20
2019-05-28T23:04:25.649Z,4.70
2019-05-28T23:06:54.446Z,4.57
2019-05-28T23:09:42.301Z,4.33
2019-05-28T23:12:12.414Z,4.63
2019-05-28T23:14:42.332Z,4.63
2019-05-28T23:17:12.253Z,4.67
2019-05-28T23:19:41.207Z,5.10
2019-05-28T23:22:29.774Z,4.83
2019-05-28T23:24:58.221Z,5.77
2019-05-28T23:27:26.629Z,5.60
2019-05-28T23:30:24.413Z,8.03
2019-05-28T23:33:04.551Z,5.73
2019-05-28T23:35:32.981Z,5.23
2019-05-28T23:38:02.640Z,7.07
2019-05-28T23:40:31.120Z,6.60
2019-05-28T23:43:21.941Z,5.97
2019-05-28T23:45:53.889Z,5.30
2019-05-28T23:48:23.080Z,6.33
2019-05-28T23:50:53.055Z,8.00
2019-05-28T23:53:23.976Z,6.10
2019-05-28T23:55:55.565Z,7.60
2019-05-28T23:58:24.571Z,7.70
